Time;durP1;ratioP1;P1;durP2;ratioP2;P2;SDS_P1;SDS_P2;PMS_P1;PMS_P2;Temp;Humidity;BMP_temperature;BMP_pressure;BME280_temperature;BME280_humidity;BME280_pressure;Samples;Min_cycle;Max_cycle;Signal;HPM_P1;HPM_P2
2023/09/24 00:00:20;;;;;;;17.25;9.50;;;;;;;;;;4860924;29;20046;-78
2023/09/24 00:02:52;;;;;;;19.77;10.27;;;;;;;;;;4858235;29;20045;-77
2023/09/24 00:05:24;;;;;;;22.52;10.00;;;;;;;;;;4861024;29;20057;-79
2023/09/24 00:07:54;;;;;;;20.98;9.98;;;;;;;;;;4857179;29;20060;-78
2023/09/24 00:10:25;;;;;;;18.00;9.77;;;;;;;;;;4861583;29;20519;-78
2023/09/24 00:12:57;;;;;;;23.77;10.43;;;;;;;;;;4862565;29;20054;-76
2023/09/24 00:15:30;;;;;;;18.33;9.73;;;;;;;;;;4862564;29;20041;-78
2023/09/24 00:18:03;;;;;;;23.42;10.18;;;;;;;;;;4862089;29;20050;-77
2023/09/24 00:20:33;;;;;;;20.15;9.50;;;;;;;;;;4861265;29;20041;-78
2023/09/24 00:23:08;;;;;;;18.20;9.95;;;;;;;;;;4862566;29;20048;-79
2023/09/24 00:25:38;;;;;;;24.30;11.82;;;;;;;;;;4858989;29;20436;-78
2023/09/24 00:28:16;;;;;;;20.38;9.80;;;;;;;;;;4844224;29;20054;-77
2023/09/24 00:30:47;;;;;;;20.80;9.55;;;;;;;;;;4826346;29;20046;-77
2023/09/24 00:33:19;;;;;;;19.23;10.00;;;;;;;;;;4843069;29;20065;-78
2023/09/24 00:35:51;;;;;;;21.35;10.25;;;;;;;;;;4843257;29;20413;-79
2023/09/24 00:38:23;;;;;;;19.83;9.73;;;;;;;;;;4845682;29;20409;-78
2023/09/24 00:40:53;;;;;;;20.17;9.93;;;;;;;;;;4860868;29;20049;-78
2023/09/24 00:43:33;;;;;;;20.27;9.43;;;;;;;;;;4860766;29;20060;-78
2023/09/24 00:46:08;;;;;;;21.67;10.15;;;;;;;;;;4859183;29;20045;-78
2023/09/24 00:48:39;;;;;;;19.38;10.40;;;;;;;;;;4860488;29;20291;-78
2023/09/24 00:51:16;;;;;;;21.92;10.50;;;;;;;;;;4860394;29;20049;-78
2023/09/24 00:53:48;;;;;;;19.55;9.75;;;;;;;;;;4870519;29;20054;-79
2023/09/24 00:56:22;;;;;;;16.15;10.15;;;;;;;;;;4872688;29;20042;-79
2023/09/24 00:58:53;;;;;;;19.23;10.32;;;;;;;;;;4859174;29;20041;-78
2023/09/24 01:01:24;;;;;;;21.50;10.27;;;;;;;;;;4871659;29;20050;-78
2023/09/24 01:03:59;;;;;;;18.85;10.27;;;;;;;;;;4839670;29;20042;-79
2023/09/24 01:06:33;;;;;;;21.83;11.10;;;;;;;;;;4860803;29;20053;-80
2023/09/24 01:09:06;;;;;;;25.88;10.50;;;;;;;;;;4843170;29;20053;-78
2023/09/24 01:11:38;;;;;;;18.75;9.40;;;;;;;;;;4825796;29;20054;-78
2023/09/24 01:14:09;;;;;;;20.50;10.25;;;;;;;;;;4859880;29;20050;-78
2023/09/24 01:16:40;;;;;;;23.50;10.55;;;;;;;;;;4860572;29;20057;-79
2023/09/24 01:19:11;;;;;;;17.95;10.38;;;;;;;;;;4860490;29;20049;-79
2023/09/24 01:21:43;;;;;;;22.60;9.88;;;;;;;;;;4860568;29;20057;-79
2023/09/24 01:24:15;;;;;;;17.42;10.00;;;;;;;;;;4843456;29;20540;-78
2023/09/24 01:26:46;;;;;;;24.70;10.45;;;;;;;;;;4831334;29;20050;-78
2023/09/24 01:29:16;;;;;;;19.23;9.88;;;;;;;;;;4842242;29;20049;-78
2023/09/24 01:31:46;;;;;;;20.88;10.23;;;;;;;;;;4842221;29;20045;-78
2023/09/24 01:34:18;;;;;;;20.02;11.30;;;;;;;;;;4866532;29;20049;-80
2023/09/24 01:36:54;;;;;;;20.95;10.13;;;;;;;;;;4857882;29;20052;-78
2023/09/24 01:39:27;;;;;;;17.90;9.90;;;;;;;;;;4842744;29;20057;-79
2023/09/24 01:42:01;;;;;;;27.23;10.00;;;;;;;;;;4860632;29;20050;-77
2023/09/24 01:44:35;;;;;;;20.00;10.18;;;;;;;;;;4873794;29;20064;-77
2023/09/24 01:47:11;;;;;;;26.58;11.93;;;;;;;;;;4843250;29;20378;-78
2023/09/24 01:49:43;;;;;;;20.40;10.38;;;;;;;;;;4842493;29;20068;-77
2023/09/24 01:52:16;;;;;;;20.70;10.30;;;;;;;;;;4841801;29;20060;-78
2023/09/24 01:54:48;;;;;;;21.45;10.80;;;;;;;;;;4843109;29;20053;-78
2023/09/24 01:57:20;;;;;;;23.27;9.90;;;;;;;;;;4856794;29;20049;-78
2023/09/24 01:59:52;;;;;;;25.70;10.27;;;;;;;;;;4826217;29;20057;-79
2023/09/24 02:02:26;;;;;;;21.00;10.38;;;;;;;;;;4855447;29;20050;-77
2023/09/24 02:04:58;;;;;;;28.55;10.73;;;;;;;;;;4850276;29;20394;-77
2023/09/24 02:07:30;;;;;;;20.25;11.02;;;;;;;;;;4849303;29;20046;-78
2023/09/24 02:10:01;;;;;;;22.02;10.75;;;;;;;;;;4859149;29;20080;-77
2023/09/24 02:12:37;;;;;;;23.75;10.20;;;;;;;;;;4845891;29;20053;-78
2023/09/24 02:15:11;;;;;;;20.90;10.38;;;;;;;;;;4861203;29;20080;-77
2023/09/24 02:17:47;;;;;;;20.13;10.35;;;;;;;;;;4862431;29;20045;-77
2023/09/24 02:23:03;;;;;;;22.15;11.02;;;;;;;;;;4865421;29;20057;-78
2023/09/24 02:25:37;;;;;;;23.85;11.02;;;;;;;;;;4848488;29;20064;-80
2023/09/24 02:28:10;;;;;;;21.08;10.73;;;;;;;;;;4865013;29;20041;-77
2023/09/24 02:30:43;;;;;;;25.30;10.25;;;;;;;;;;4865917;29;20058;-77
2023/09/24 02:33:16;;;;;;;21.98;11.00;;;;;;;;;;4848734;29;20416;-77
2023/09/24 02:35:49;;;;;;;20.70;10.20;;;;;;;;;;4865492;29;20049;-78
2023/09/24 02:38:24;;;;;;;23.48;10.77;;;;;;;;;;4861629;29;20061;-78
2023/09/24 02:40:56;;;;;;;20.30;9.75;;;;;;;;;;4866702;29;20087;-77
2023/09/24 02:43:29;;;;;;;22.33;10.88;;;;;;;;;;4865778;29;20045;-79
2023/09/24 02:46:06;;;;;;;25.02;10.30;;;;;;;;;;4849431;29;20061;-82
2023/09/24 02:48:43;;;;;;;19.20;9.63;;;;;;;;;;4849537;29;20401;-80
2023/09/24 02:51:20;;;;;;;22.02;10.30;;;;;;;;;;4867166;29;20050;-79
2023/09/24 02:53:51;;;;;;;20.58;10.52;;;;;;;;;;4849344;29;20061;-78
2023/09/24 02:56:21;;;;;;;22.52;10.20;;;;;;;;;;4866312;29;20045;-78
2023/09/24 02:58:58;;;;;;;21.20;10.00;;;;;;;;;;4866688;29;20049;-80
2023/09/24 03:01:31;;;;;;;19.80;9.82;;;;;;;;;;4849814;29;20061;-78
2023/09/24 03:04:01;;;;;;;24.98;10.68;;;;;;;;;;4866463;29;20053;-78
2023/09/24 03:06:33;;;;;;;23.48;10.65;;;;;;;;;;4866756;29;20041;-79
2023/09/24 03:09:10;;;;;;;18.63;10.38;;;;;;;;;;4866245;29;20042;-79
2023/09/24 03:11:41;;;;;;;32.88;11.00;;;;;;;;;;4849352;29;20405;-79
2023/09/24 03:14:13;;;;;;;22.73;10.95;;;;;;;;;;4866437;29;20050;-78
2023/09/24 03:16:43;;;;;;;22.55;10.98;;;;;;;;;;4866114;29;20068;-78
2023/09/24 03:19:17;;;;;;;17.67;10.73;;;;;;;;;;4866285;29;20462;-78
2023/09/24 03:21:53;;;;;;;18.60;10.05;;;;;;;;;;4864554;29;20062;-77
2023/09/24 03:24:26;;;;;;;19.02;10.65;;;;;;;;;;4863463;29;20453;-78
2023/09/24 03:26:56;;;;;;;17.60;10.13;;;;;;;;;;4846500;29;20053;-78
2023/09/24 03:29:28;;;;;;;19.63;9.85;;;;;;;;;;4863527;29;20041;-78
2023/09/24 03:31:58;;;;;;;23.02;10.63;;;;;;;;;;4846975;29;20057;-79
2023/09/24 03:34:34;;;;;;;22.40;10.65;;;;;;;;;;4846282;29;20057;-78
2023/09/24 03:37:09;;;;;;;;;;;;;;;;;;4847204;29;20065;-79
2023/09/24 03:39:40;;;;;;;20.20;9.70;;;;;;;;;;4846882;29;19924;-78
2023/09/24 03:42:14;;;;;;;21.50;9.75;;;;;;;;;;4845628;29;20416;-78
2023/09/24 03:44:44;;;;;;;23.98;10.60;;;;;;;;;;4845807;29;20057;-78
2023/09/24 03:47:14;;;;;;;21.50;10.52;;;;;;;;;;4846233;29;20064;-79
2023/09/24 03:49:44;;;;;;;24.27;10.90;;;;;;;;;;4845780;29;20053;-81
2023/09/24 03:52:16;;;;;;;21.35;9.68;;;;;;;;;;4846163;29;20058;-78
2023/09/24 03:54:49;;;;;;;24.20;10.90;;;;;;;;;;4863411;29;20464;-81
2023/09/24 03:57:19;;;;;;;19.83;10.63;;;;;;;;;;4863258;29;20481;-80
2023/09/24 03:59:55;;;;;;;25.92;11.05;;;;;;;;;;4845682;29;20493;-78
2023/09/24 04:02:28;;;;;;;20.35;10.60;;;;;;;;;;4863069;29;20070;-81
2023/09/24 04:04:59;;;;;;;21.15;10.18;;;;;;;;;;4846055;29;20065;-81
2023/09/24 04:07:29;;;;;;;18.05;10.10;;;;;;;;;;4863060;29;20050;-79
2023/09/24 04:10:00;;;;;;;23.85;10.07;;;;;;;;;;4862754;29;20053;-80
2023/09/24 04:12:34;;;;;;;24.65;10.40;;;;;;;;;;4862825;29;20057;-78
2023/09/24 04:15:08;;;;;;;23.30;10.70;;;;;;;;;;4862346;29;20041;-77
2023/09/24 04:17:39;;;;;;;20.35;10.02;;;;;;;;;;4862526;29;20112;-78
2023/09/24 04:20:15;;;;;;;21.95;10.05;;;;;;;;;;4862673;29;20061;-78
2023/09/24 04:22:47;;;;;;;29.15;10.45;;;;;;;;;;4862160;29;20112;-79
2023/09/24 04:25:21;;;;;;;22.95;10.38;;;;;;;;;;4862472;29;20507;-78
2023/09/24 04:27:56;;;;;;;25.42;10.63;;;;;;;;;;4862398;29;20052;-78
2023/09/24 04:30:26;;;;;;;27.27;10.73;;;;;;;;;;4862483;29;20056;-78
2023/09/24 04:32:58;;;;;;;20.67;10.13;;;;;;;;;;4862123;29;20057;-79
2023/09/24 04:35:33;;;;;;;23.27;11.27;;;;;;;;;;4861790;29;20045;-79
2023/09/24 04:38:05;;;;;;;18.27;9.93;;;;;;;;;;4862366;29;20049;-78
2023/09/24 04:40:35;;;;;;;20.25;10.13;;;;;;;;;;4862030;29;20057;-78
2023/09/24 04:43:11;;;;;;;20.50;10.25;;;;;;;;;;4861788;29;20054;-80
2023/09/24 04:45:42;;;;;;;22.92;10.55;;;;;;;;;;4862072;29;20052;-79
2023/09/24 04:48:12;;;;;;;23.13;9.98;;;;;;;;;;4862094;29;20072;-78
2023/09/24 04:50:42;;;;;;;22.02;10.60;;;;;;;;;;4862172;29;20053;-78
2023/09/24 04:53:14;;;;;;;24.17;10.55;;;;;;;;;;4861727;29;20489;-79
2023/09/24 04:55:52;;;;;;;21.80;10.38;;;;;;;;;;4861947;29;20147;-81
2023/09/24 04:58:23;;;;;;;20.58;10.15;;;;;;;;;;4862425;29;20060;-81
2023/09/24 05:01:04;;;;;;;24.13;10.27;;;;;;;;;;4861459;29;20049;-78
2023/09/24 05:03:38;;;;;;;21.73;10.35;;;;;;;;;;4861912;29;20048;-78
2023/09/24 05:06:14;;;;;;;19.65;9.68;;;;;;;;;;4861772;29;20615;-80
2023/09/24 05:08:48;;;;;;;21.75;10.07;;;;;;;;;;4861511;29;20050;-79
2023/09/24 05:11:18;;;;;;;19.95;9.95;;;;;;;;;;4861862;29;20049;-79
2023/09/24 05:13:48;;;;;;;21.25;10.13;;;;;;;;;;4861484;29;20050;-77
2023/09/24 05:16:21;;;;;;;19.27;10.40;;;;;;;;;;4862082;29;20049;-78
2023/09/24 05:18:52;;;;;;;22.40;10.73;;;;;;;;;;4860991;29;20049;-78
2023/09/24 05:21:27;;;;;;;24.65;10.68;;;;;;;;;;4861316;29;20515;-79
2023/09/24 05:23:59;;;;;;;25.40;10.73;;;;;;;;;;4862006;29;20433;-77
2023/09/24 05:26:29;;;;;;;19.02;10.27;;;;;;;;;;4861021;29;20049;-80
2023/09/24 05:29:00;;;;;;;23.45;10.35;;;;;;;;;;4861116;29;20061;-79
2023/09/24 05:31:30;;;;;;;19.38;10.35;;;;;;;;;;4861870;29;20061;-79
2023/09/24 05:34:06;;;;;;;23.02;10.93;;;;;;;;;;4861511;29;20049;-79
2023/09/24 05:36:37;;;;;;;23.55;10.77;;;;;;;;;;4861373;29;20050;-79
2023/09/24 05:39:08;;;;;;;19.33;9.85;;;;;;;;;;4861198;29;20041;-78
2023/09/24 05:41:44;;;;;;;25.15;10.68;;;;;;;;;;4860998;29;20061;-78
2023/09/24 05:44:16;;;;;;;21.80;11.20;;;;;;;;;;4860232;29;20049;-78
2023/09/24 05:46:50;;;;;;;24.20;10.55;;;;;;;;;;4861284;29;20404;-78
2023/09/24 05:49:20;;;;;;;22.40;9.85;;;;;;;;;;4861120;29;20057;-76
2023/09/24 05:51:51;;;;;;;19.00;10.38;;;;;;;;;;4861227;29;20050;-78
2023/09/24 05:54:26;;;;;;;21.65;9.77;;;;;;;;;;4861399;29;20041;-78
2023/09/24 05:57:00;;;;;;;20.20;10.50;;;;;;;;;;4861139;29;20046;-80
2023/09/24 05:59:31;;;;;;;26.65;10.32;;;;;;;;;;4861134;29;20053;-80
2023/09/24 06:02:01;;;;;;;22.23;10.55;;;;;;;;;;4860590;29;20485;-78
2023/09/24 06:04:32;;;;;;;23.48;10.60;;;;;;;;;;4844872;29;20050;-78
2023/09/24 06:07:05;;;;;;;21.05;9.98;;;;;;;;;;4860812;29;20369;-78
2023/09/24 06:09:35;;;;;;;24.30;10.38;;;;;;;;;;4845224;29;20465;-78
2023/09/24 06:12:05;;;;;;;25.60;10.63;;;;;;;;;;4860830;29;20073;-78
2023/09/24 06:14:35;;;;;;;20.92;10.40;;;;;;;;;;4860536;29;20053;-78
2023/09/24 06:17:07;;;;;;;23.17;10.27;;;;;;;;;;4843530;29;20054;-79
2023/09/24 06:19:38;;;;;;;19.80;9.50;;;;;;;;;;4861216;29;20076;-80
2023/09/24 06:22:09;;;;;;;19.55;10.02;;;;;;;;;;4860835;29;20052;-78
2023/09/24 06:24:39;;;;;;;24.05;10.75;;;;;;;;;;4861146;29;20500;-78
2023/09/24 06:27:13;;;;;;;21.02;10.52;;;;;;;;;;4861274;29;20061;-77
2023/09/24 06:29:45;;;;;;;18.45;10.30;;;;;;;;;;4861317;29;20061;-78
2023/09/24 06:32:20;;;;;;;22.42;10.90;;;;;;;;;;4860663;29;20054;-78
2023/09/24 06:34:50;;;;;;;22.17;9.98;;;;;;;;;;4860643;29;20053;-78
2023/09/24 06:37:21;;;;;;;25.95;11.27;;;;;;;;;;4860500;29;20116;-77
2023/09/24 06:39:53;;;;;;;23.23;10.50;;;;;;;;;;4860030;29;20049;-78
2023/09/24 06:42:28;;;;;;;18.55;9.98;;;;;;;;;;4860856;29;20050;-77
2023/09/24 06:45:00;;;;;;;25.30;10.38;;;;;;;;;;4860578;29;20050;-77
2023/09/24 06:47:31;;;;;;;21.42;10.20;;;;;;;;;;4861057;29;20484;-77
2023/09/24 06:50:03;;;;;;;19.25;10.07;;;;;;;;;;4860805;29;20064;-78
2023/09/24 06:52:34;;;;;;;;;;;;;;;;;;4861106;29;20392;-77
2023/09/24 06:55:05;;;;;;;19.73;9.63;;;;;;;;;;4860447;29;20283;-77
2023/09/24 06:57:36;;;;;;;22.00;9.93;;;;;;;;;;4861855;29;20042;-77
2023/09/24 07:00:11;;;;;;;24.02;10.50;;;;;;;;;;4847535;29;20397;-79
2023/09/24 07:02:41;;;;;;;21.38;9.30;;;;;;;;;;4847385;29;20058;-77
2023/09/24 07:05:17;;;;;;;20.00;10.00;;;;;;;;;;4863804;29;20053;-77
2023/09/24 07:07:49;;;;;;;25.00;10.55;;;;;;;;;;4863561;29;20046;-77
2023/09/24 07:10:22;;;;;;;21.13;10.45;;;;;;;;;;4863882;29;20045;-77
2023/09/24 07:12:54;;;;;;;20.67;10.30;;;;;;;;;;4863537;29;20057;-77
2023/09/24 07:15:24;;;;;;;17.50;9.98;;;;;;;;;;4863423;29;20046;-80
2023/09/24 07:17:55;;;;;;;21.38;9.60;;;;;;;;;;4863818;29;20049;-79
2023/09/24 07:20:25;;;;;;;16.88;9.90;;;;;;;;;;4863530;29;20053;-78
2023/09/24 07:22:55;;;;;;;20.60;10.05;;;;;;;;;;4863547;29;20060;-79
2023/09/24 07:25:27;;;;;;;20.48;9.98;;;;;;;;;;4863295;29;20432;-77
2023/09/24 07:27:59;;;;;;;21.60;10.98;;;;;;;;;;4847930;29;20358;-79
2023/09/24 07:30:33;;;;;;;21.88;10.80;;;;;;;;;;4863458;29;20041;-80
2023/09/24 07:33:09;;;;;;;20.10;10.60;;;;;;;;;;4863324;29;20046;-78
2023/09/24 07:35:39;;;;;;;23.60;9.93;;;;;;;;;;4863352;29;20053;-78
2023/09/24 07:38:14;;;;;;;21.67;9.25;;;;;;;;;;4863237;29;20485;-78
2023/09/24 07:40:45;;;;;;;20.15;10.45;;;;;;;;;;4863182;29;20060;-77
2023/09/24 07:43:15;;;;;;;23.25;10.48;;;;;;;;;;4861222;29;20059;-77
2023/09/24 07:45:45;;;;;;;18.70;9.38;;;;;;;;;;4863774;29;20057;-78
2023/09/24 07:48:15;;;;;;;22.55;10.82;;;;;;;;;;4866180;29;20045;-78
2023/09/24 07:50:54;;;;;;;25.10;10.20;;;;;;;;;;4886466;29;20030;-78
2023/09/24 07:53:26;;;;;;;18.15;9.88;;;;;;;;;;4886418;29;20030;-79
2023/09/24 07:55:58;;;;;;;20.85;9.90;;;;;;;;;;4886416;29;20029;-79
2023/09/24 07:58:30;;;;;;;20.92;10.18;;;;;;;;;;4870151;29;20044;-78
2023/09/24 08:01:04;;;;;;;21.42;9.35;;;;;;;;;;4886399;29;20048;-76
2023/09/24 08:03:36;;;;;;;18.95;9.63;;;;;;;;;;4886283;29;20056;-80
2023/09/24 08:06:07;;;;;;;25.02;10.82;;;;;;;;;;4886291;29;20034;-79
2023/09/24 08:08:37;;;;;;;26.33;9.93;;;;;;;;;;4885956;29;20038;-78
2023/09/24 08:11:19;;;;;;;21.80;9.43;;;;;;;;;;4870864;29;20068;-80
2023/09/24 08:13:51;;;;;;;24.08;9.52;;;;;;;;;;4863635;29;20049;-77
2023/09/24 08:16:24;;;;;;;18.60;10.05;;;;;;;;;;4862781;29;20053;-80
2023/09/24 08:18:55;;;;;;;22.38;9.85;;;;;;;;;;4862462;29;20512;-77
2023/09/24 08:21:30;;;;;;;22.42;10.25;;;;;;;;;;4862791;29;20046;-78
2023/09/24 08:24:01;;;;;;;18.35;9.20;;;;;;;;;;4862862;29;20050;-76
2023/09/24 08:26:36;;;;;;;21.38;10.45;;;;;;;;;;4862915;29;20046;-78
2023/09/24 08:29:06;;;;;;;18.95;9.68;;;;;;;;;;4862770;29;20068;-78
2023/09/24 08:31:36;;;;;;;23.90;10.80;;;;;;;;;;4862992;29;20060;-78
2023/09/24 08:34:07;;;;;;;21.00;9.73;;;;;;;;;;4862036;29;20064;-79
2023/09/24 08:36:38;;;;;;;24.65;9.20;;;;;;;;;;4862536;29;20049;-80
2023/09/24 08:39:14;;;;;;;19.77;9.65;;;;;;;;;;4845178;29;20050;-78
2023/09/24 08:41:44;;;;;;;20.55;10.57;;;;;;;;;;4862404;29;20151;-79
2023/09/24 08:44:18;;;;;;;20.85;9.73;;;;;;;;;;4862257;29;20061;-77
2023/09/24 08:46:51;;;;;;;25.63;11.15;;;;;;;;;;4862586;29;20404;-78
2023/09/24 08:49:28;;;;;;;19.85;9.98;;;;;;;;;;4862003;29;20450;-78
2023/09/24 08:52:01;;;;;;;23.63;10.88;;;;;;;;;;4863360;29;20058;-78
2023/09/24 08:54:32;;;;;;;;;;;;;;;;;;4863047;29;20046;-78
2023/09/24 08:57:02;;;;;;;19.13;9.88;;;;;;;;;;4857459;29;20400;-77
2023/09/24 08:59:35;;;;;;;21.35;9.82;;;;;;;;;;4857487;29;20050;-77
2023/09/24 09:02:08;;;;;;;20.23;9.98;;;;;;;;;;4859809;29;20401;-79
2023/09/24 09:04:51;;;;;;;19.92;10.43;;;;;;;;;;4861128;29;20054;-80
2023/09/24 09:07:21;;;;;;;19.75;10.00;;;;;;;;;;4861457;29;20056;-77
2023/09/24 09:09:56;;;;;;;28.88;11.07;;;;;;;;;;4861078;29;20045;-78
2023/09/24 09:12:26;;;;;;;22.00;9.75;;;;;;;;;;4861831;29;20049;-78
2023/09/24 09:14:57;;;;;;;19.00;10.13;;;;;;;;;;4861774;29;20053;-78
2023/09/24 09:17:40;;;;;;;19.70;9.38;;;;;;;;;;4847281;29;20050;-78
2023/09/24 09:20:11;;;;;;;23.02;10.02;;;;;;;;;;4848506;29;20154;-79
2023/09/24 09:22:46;;;;;;;17.70;8.30;;;;;;;;;;4860683;29;20057;-77
2023/09/24 09:25:17;;;;;;;20.88;9.88;;;;;;;;;;4860549;29;20057;-78
2023/09/24 09:27:50;;;;;;;17.13;9.40;;;;;;;;;;4860157;29;20045;-79
2023/09/24 09:30:22;;;;;;;19.63;9.68;;;;;;;;;;4844430;29;20050;-78
2023/09/24 09:32:53;;;;;;;21.33;9.27;;;;;;;;;;4857122;29;20050;-77
2023/09/24 09:35:36;;;;;;;22.13;10.57;;;;;;;;;;4860051;29;20050;-76
2023/09/24 09:38:12;;;;;;;18.40;9.10;;;;;;;;;;4859514;29;20049;-77
2023/09/24 09:40:44;;;;;;;19.52;9.38;;;;;;;;;;4860439;29;20064;-77
2023/09/24 09:43:17;;;;;;;21.63;9.52;;;;;;;;;;4860902;29;20049;-79
2023/09/24 09:45:48;;;;;;;21.05;9.35;;;;;;;;;;4860500;29;20064;-78
2023/09/24 09:48:27;;;;;;;19.38;9.55;;;;;;;;;;4855648;29;20057;-78
2023/09/24 09:51:03;;;;;;;20.17;9.38;;;;;;;;;;4855407;29;20527;-76
2023/09/24 09:53:35;;;;;;;15.48;9.55;;;;;;;;;;4860471;29;20053;-77
2023/09/24 09:56:07;;;;;;;22.70;9.70;;;;;;;;;;4860456;29;20049;-77
2023/09/24 09:58:38;;;;;;;32.15;11.23;;;;;;;;;;4857170;29;20416;-78
2023/09/24 10:01:09;;;;;;;23.60;9.20;;;;;;;;;;4860320;29;20045;-79
2023/09/24 10:03:42;;;;;;;21.50;9.90;;;;;;;;;;4860608;29;20072;-77
2023/09/24 10:06:14;;;;;;;18.73;9.82;;;;;;;;;;4860939;29;20050;-77
2023/09/24 10:08:49;;;;;;;16.77;8.75;;;;;;;;;;4845231;29;20068;-77
2023/09/24 10:11:32;;;;;;;18.25;9.68;;;;;;;;;;4861159;29;20072;-77
2023/09/24 10:14:05;;;;;;;17.80;9.43;;;;;;;;;;4860720;29;20054;-77
2023/09/24 10:16:38;;;;;;;20.92;9.07;;;;;;;;;;4861257;29;20045;-79
2023/09/24 10:19:13;;;;;;;18.58;9.02;;;;;;;;;;4861056;29;20052;-77
2023/09/24 10:21:45;;;;;;;20.65;9.43;;;;;;;;;;4848844;29;20058;-77
2023/09/24 10:24:18;;;;;;;18.65;8.88;;;;;;;;;;4842842;29;20042;-77
2023/09/24 10:27:06;;;;;;;17.70;9.00;;;;;;;;;;4842419;29;20490;-76
2023/09/24 10:29:51;;;;;;;18.65;9.63;;;;;;;;;;4842434;29;20064;-77
2023/09/24 10:32:26;;;;;;;20.30;9.48;;;;;;;;;;4847373;29;20053;-77
2023/09/24 10:35:03;;;;;;;24.58;10.27;;;;;;;;;;4854245;29;20497;-79
2023/09/24 10:37:34;;;;;;;19.63;9.18;;;;;;;;;;4864642;29;20064;-75
2023/09/24 10:40:12;;;;;;;15.15;8.75;;;;;;;;;;4864634;29;20461;-79
2023/09/24 10:43:04;;;;;;;19.13;9.60;;;;;;;;;;4864133;29;20049;-77
2023/09/24 10:45:35;;;;;;;18.90;9.65;;;;;;;;;;4863767;29;20056;-77
2023/09/24 10:48:05;;;;;;;18.10;9.45;;;;;;;;;;4863570;29;20060;-77
2023/09/24 10:50:40;;;;;;;18.75;9.73;;;;;;;;;;4846964;29;20061;-76
2023/09/24 10:53:18;;;;;;;19.52;8.77;;;;;;;;;;4864533;29;20050;-76
2023/09/24 10:55:48;;;;;;;19.95;10.27;;;;;;;;;;4863361;29;20054;-76
2023/09/24 10:58:33;;;;;;;17.05;10.00;;;;;;;;;;4857964;29;20046;-76
2023/09/24 11:04:02;;;;;;;25.40;10.38;;;;;;;;;;4862038;29;20049;-76
2023/09/24 11:06:33;;;;;;;20.55;9.80;;;;;;;;;;4849604;29;20243;-79
2023/09/24 11:09:22;;;;;;;17.95;9.55;;;;;;;;;;4845457;29;20490;-76
2023/09/24 11:11:54;;;;;;;16.10;9.25;;;;;;;;;;4828408;29;20506;-77
2023/09/24 11:14:25;;;;;;;19.45;9.43;;;;;;;;;;4827673;29;20513;-77
2023/09/24 11:16:59;;;;;;;15.20;9.05;;;;;;;;;;4845876;29;20049;-77
2023/09/24 11:19:48;;;;;;;20.00;9.25;;;;;;;;;;4845522;29;20053;-77
2023/09/24 11:22:25;;;;;;;20.05;9.88;;;;;;;;;;4845142;29;20050;-79
2023/09/24 11:25:13;;;;;;;21.52;9.25;;;;;;;;;;4844747;29;20519;-77
2023/09/24 11:27:51;;;;;;;20.77;9.40;;;;;;;;;;4845108;29;20053;-77
2023/09/24 11:30:41;;;;;;;22.95;9.15;;;;;;;;;;4844776;29;20049;-79
2023/09/24 11:33:23;;;;;;;21.00;9.63;;;;;;;;;;4844831;29;20046;-77
2023/09/24 11:35:55;;;;;;;19.80;9.75;;;;;;;;;;4845021;29;20494;-77
2023/09/24 11:38:31;;;;;;;16.95;8.85;;;;;;;;;;4829762;29;20492;-77
2023/09/24 11:41:13;;;;;;;20.25;9.05;;;;;;;;;;4858809;29;20049;-77
2023/09/24 11:46:55;;;;;;;17.40;8.73;;;;;;;;;;4863400;29;20049;-77
2023/09/24 11:49:27;;;;;;;14.15;8.82;;;;;;;;;;4862565;29;20058;-77
2023/09/24 11:52:06;;;;;;;16.40;8.75;;;;;;;;;;4862561;29;20050;-78
2023/09/24 11:54:40;;;;;;;14.10;8.43;;;;;;;;;;4862135;29;20045;-80
2023/09/24 11:57:09;;;;;;;;;;;;;;;;;;4863551;29;20053;-79
2023/09/24 11:59:39;;;;;;;17.88;8.45;;;;;;;;;;4862901;29;19939;-79
2023/09/24 12:02:11;;;;;;;15.98;9.13;;;;;;;;;;4863063;29;20520;-78
2023/09/24 12:04:48;;;;;;;17.90;9.07;;;;;;;;;;4863011;29;20477;-80
2023/09/24 12:07:18;;;;;;;16.42;8.18;;;;;;;;;;4863105;29;20508;-80
2023/09/24 12:09:49;;;;;;;16.33;8.27;;;;;;;;;;4862161;29;20505;-78
2023/09/24 12:12:20;;;;;;;17.65;8.38;;;;;;;;;;4862156;29;20049;-79
2023/09/24 12:14:51;;;;;;;17.48;9.32;;;;;;;;;;4876819;29;20178;-78
2023/09/24 12:17:21;;;;;;;16.55;8.43;;;;;;;;;;4863011;29;20046;-78
2023/09/24 12:19:52;;;;;;;17.98;8.15;;;;;;;;;;4862837;29;20053;-77
2023/09/24 12:22:23;;;;;;;16.42;8.90;;;;;;;;;;4863181;29;20492;-78
2023/09/24 12:24:57;;;;;;;16.60;8.77;;;;;;;;;;4846017;29;20385;-80
2023/09/24 12:27:30;;;;;;;16.10;7.90;;;;;;;;;;4862103;29;20049;-78
2023/09/24 12:30:05;;;;;;;18.02;7.95;;;;;;;;;;4862380;29;20159;-78
2023/09/24 12:32:37;;;;;;;14.95;8.38;;;;;;;;;;4861724;29;20056;-78
2023/09/24 12:35:12;;;;;;;17.08;8.48;;;;;;;;;;4860892;29;20214;-79
2023/09/24 12:37:44;;;;;;;15.30;8.20;;;;;;;;;;4862661;29;20124;-82
2023/09/24 12:40:17;;;;;;;15.65;8.73;;;;;;;;;;4862320;29;20045;-79
2023/09/24 12:42:48;;;;;;;16.10;8.40;;;;;;;;;;4861847;29;20045;-81
2023/09/24 12:45:23;;;;;;;12.32;7.80;;;;;;;;;;4862503;29;20508;-78
2023/09/24 12:47:55;;;;;;;12.35;7.43;;;;;;;;;;4861740;29;20053;-79
2023/09/24 12:50:30;;;;;;;15.80;7.85;;;;;;;;;;4843998;29;20050;-80
2023/09/24 12:53:00;;;;;;;12.23;5.97;;;;;;;;;;4843717;29;20061;-80
2023/09/24 12:55:33;;;;;;;;;;;;;;;;;;4843137;29;20049;-81
2023/09/24 12:58:03;;;;;;;20.60;6.32;;;;;;;;;;4827453;29;19932;-82
2023/09/24 13:00:37;;;;;;;15.68;5.50;;;;;;;;;;4843516;29;20378;-80
2023/09/24 13:03:10;;;;;;;12.82;5.32;;;;;;;;;;4843214;29;20358;-82
2023/09/24 13:05:42;;;;;;;11.48;5.05;;;;;;;;;;4842693;29;20505;-82
2023/09/24 13:08:13;;;;;;;16.30;5.85;;;;;;;;;;4835392;29;20047;-80
2023/09/24 13:10:49;;;;;;;8.95;5.53;;;;;;;;;;4824719;29;20046;-79
2023/09/24 13:13:20;;;;;;;9.82;5.68;;;;;;;;;;4824999;29;20049;-78
2023/09/24 13:15:53;;;;;;;14.45;5.43;;;;;;;;;;4839233;29;20522;-79
2023/09/24 13:18:24;;;;;;;9.60;5.78;;;;;;;;;;4840814;29;20054;-80
2023/09/24 13:20:54;;;;;;;11.50;5.53;;;;;;;;;;4842577;29;20061;-79
2023/09/24 13:23:29;;;;;;;10.75;5.32;;;;;;;;;;4842890;29;20489;-80
2023/09/24 13:26:02;;;;;;;13.73;5.63;;;;;;;;;;4841208;29;20056;-79
2023/09/24 13:28:32;;;;;;;12.50;5.13;;;;;;;;;;4841327;29;20050;-80
2023/09/24 13:31:04;;;;;;;9.82;5.47;;;;;;;;;;4843210;29;20474;-79
2023/09/24 13:33:35;;;;;;;9.23;5.88;;;;;;;;;;4843025;29;20046;-79
2023/09/24 13:36:11;;;;;;;10.48;5.43;;;;;;;;;;4841927;29;20049;-79
2023/09/24 13:38:42;;;;;;;10.60;6.10;;;;;;;;;;4843102;29;20057;-79
2023/09/24 13:41:12;;;;;;;10.25;6.13;;;;;;;;;;4842726;29;20050;-78
2023/09/24 13:43:43;;;;;;;12.80;5.90;;;;;;;;;;4842951;29;20054;-79
2023/09/24 13:46:15;;;;;;;11.48;6.10;;;;;;;;;;4843370;29;20046;-79
2023/09/24 13:48:46;;;;;;;11.48;5.75;;;;;;;;;;4848554;29;20054;-79
2023/09/24 13:51:17;;;;;;;9.30;6.13;;;;;;;;;;4861090;29;20470;-78
2023/09/24 13:53:49;;;;;;;10.73;5.63;;;;;;;;;;4861543;29;20050;-79
2023/09/24 13:56:21;;;;;;;11.70;6.50;;;;;;;;;;4861175;29;20049;-82
2023/09/24 13:58:51;;;;;;;13.25;5.85;;;;;;;;;;4861083;29;20045;-80
2023/09/24 14:01:25;;;;;;;10.15;6.85;;;;;;;;;;4860987;29;20049;-79
2023/09/24 14:03:55;;;;;;;11.00;6.03;;;;;;;;;;4861187;29;20045;-80
2023/09/24 14:06:27;;;;;;;8.57;5.93;;;;;;;;;;4861033;29;20080;-79
2023/09/24 14:14:38;;;;;;;9.65;6.50;;;;;;;;;;4861212;29;20385;-82
2023/09/24 14:17:12;;;;;;;12.32;6.55;;;;;;;;;;4844046;29;20060;-82
2023/09/24 14:19:42;;;;;;;10.43;6.90;;;;;;;;;;4860791;29;20057;-80
2023/09/24 14:22:13;;;;;;;13.02;7.22;;;;;;;;;;4861463;29;20045;-80
2023/09/24 14:24:46;;;;;;;10.10;6.63;;;;;;;;;;4860695;29;20061;-80
2023/09/24 14:27:19;;;;;;;10.00;6.93;;;;;;;;;;4844876;29;20050;-81
2023/09/24 14:29:51;;;;;;;11.48;6.30;;;;;;;;;;4860786;29;20409;-80
2023/09/24 14:32:24;;;;;;;10.07;6.28;;;;;;;;;;4860668;29;20042;-81
2023/09/24 14:34:54;;;;;;;11.15;6.15;;;;;;;;;;4860718;29;20048;-81
2023/09/24 14:37:31;;;;;;;10.07;6.53;;;;;;;;;;4860523;29;20485;-79
2023/09/24 14:40:03;;;;;;;12.40;6.47;;;;;;;;;;4861273;29;20392;-80
2023/09/24 14:42:34;;;;;;;10.55;6.20;;;;;;;;;;4861146;29;20060;-81
2023/09/24 14:45:07;;;;;;;13.70;6.70;;;;;;;;;;4860456;29;20057;-81
2023/09/24 14:47:41;;;;;;;11.65;7.10;;;;;;;;;;4860674;29;20397;-80
2023/09/24 14:50:16;;;;;;;9.23;6.90;;;;;;;;;;4860739;29;20054;-79
2023/09/24 14:52:45;;;;;;;12.40;6.95;;;;;;;;;;4844703;29;20491;-80
2023/09/24 14:55:18;;;;;;;8.98;5.93;;;;;;;;;;4860232;29;20060;-80
2023/09/24 14:57:52;;;;;;;10.68;6.72;;;;;;;;;;4861056;29;20053;-81
2023/09/24 15:00:27;;;;;;;11.18;6.55;;;;;;;;;;4860395;29;20053;-81
2023/09/24 15:02:59;;;;;;;12.75;7.22;;;;;;;;;;4861024;29;20469;-80
2023/09/24 15:05:31;;;;;;;;;;;;;;;;;;4860435;29;20045;-81
2023/09/24 15:08:03;;;;;;;11.80;7.80;;;;;;;;;;4860596;29;19924;-79
2023/09/24 15:10:40;;;;;;;11.18;7.07;;;;;;;;;;4860900;29;20054;-80
2023/09/24 15:13:13;;;;;;;12.70;7.43;;;;;;;;;;4860284;29;20053;-80